메인 페이지
METAR-TAF:

METAR-TAF

공항 :

Rønne, 덴마크

위도: 55-04N, 경도: 014-45E, 고도: 16m

현재 날씨관측

예보는 15분 전, 04:20시(UTC)에 발표되었습니다.
동북동6kt
온도 18°C
습도 83%
기압 1010 hPa
시정 10km 이상

METAR: EKRN 210420Z AUTO 06006KT 9999 NCD 18/15 Q1010

시각: 06:35 (04:35 UTC)

예보

예보는 2 시간 21분 전, 02:14시(UTC)에 발표되었습니다.
예보 대상 시간: 21일 03시부터 21일 12시까지 (UTC)
8kt
시정 10km 이상
고도 20000ft 상공 구름 조금

TAF: EKRN 210214Z 2103/2112 09008KT 9999 FEW200

4,000개 이상의 공항 관측 자료 및 예보 (METAR 및 TAF 보고).

지도상에서 검색 가능한 기상관측소가 노란 점과 빨간 점으로 표시되어 있습니다.

기상관측소 명을 보려면 표시 위로 마우스를 이동하세요.

날씨 관측과 예보를 보려면 클릭하세요.

지도 변경 : 확대하려면 엑스 표시가 있는 녹색 버튼, 축소하려면 빼기 표시가 있는 녹색 버튼, 다음 페이지의 지도를 보려면 녹색 화살표를 클릭하세요.


METAR-TAF: